sensor_id;sensor_type;location;lat;lon;timestamp;P1;durP1;ratioP1;P2;durP2;ratioP2
24143;SDS011;12307;50.828;6.080;2023-06-19T00:02:17;2.40;;;2.20;;
24143;SDS011;12307;50.828;6.080;2023-06-19T00:04:43;2.40;;;2.20;;
24143;SDS011;12307;50.828;6.080;2023-06-19T00:07:09;2.00;;;1.90;;
24143;SDS011;12307;50.828;6.080;2023-06-19T00:09:34;2.22;;;2.03;;
24143;SDS011;12307;50.828;6.080;2023-06-19T00:12:01;2.10;;;2.00;;
24143;SDS011;12307;50.828;6.080;2023-06-19T00:14:29;2.33;;;2.13;;
24143;SDS011;12307;50.828;6.080;2023-06-19T00:16:54;2.00;;;1.90;;
24143;SDS011;12307;50.828;6.080;2023-06-19T00:19:21;2.55;;;2.35;;
24143;SDS011;12307;50.828;6.080;2023-06-19T00:21:47;2.20;;;2.00;;
24143;SDS011;12307;50.828;6.080;2023-06-19T00:24:13;2.08;;;1.98;;
24143;SDS011;12307;50.828;6.080;2023-06-19T00:26:38;2.28;;;2.08;;
24143;SDS011;12307;50.828;6.080;2023-06-19T00:29:06;2.30;;;2.10;;
24143;SDS011;12307;50.828;6.080;2023-06-19T00:31:32;2.10;;;1.90;;
24143;SDS011;12307;50.828;6.080;2023-06-19T00:33:58;2.20;;;2.10;;
24143;SDS011;12307;50.828;6.080;2023-06-19T00:36:23;2.20;;;2.10;;
24143;SDS011;12307;50.828;6.080;2023-06-19T00:38:51;2.00;;;1.90;;
24143;SDS011;12307;50.828;6.080;2023-06-19T00:41:17;2.33;;;2.13;;
24143;SDS011;12307;50.828;6.080;2023-06-19T00:43:43;2.38;;;2.17;;
24143;SDS011;12307;50.828;6.080;2023-06-19T00:46:10;2.13;;;1.92;;
24143;SDS011;12307;50.828;6.080;2023-06-19T00:48:36;1.95;;;1.85;;
24143;SDS011;12307;50.828;6.080;2023-06-19T00:51:03;2.50;;;2.30;;
24143;SDS011;12307;50.828;6.080;2023-06-19T00:53:28;2.10;;;2.00;;
24143;SDS011;12307;50.828;6.080;2023-06-19T00:55:57;2.35;;;2.15;;
24143;SDS011;12307;50.828;6.080;2023-06-19T00:58:24;2.00;;;1.90;;
24143;SDS011;12307;50.828;6.080;2023-06-19T01:00:50;2.05;;;1.95;;
24143;SDS011;12307;50.828;6.080;2023-06-19T01:03:17;2.55;;;2.35;;
24143;SDS011;12307;50.828;6.080;2023-06-19T01:05:43;2.65;;;2.45;;
24143;SDS011;12307;50.828;6.080;2023-06-19T01:08:12;1.95;;;1.85;;
24143;SDS011;12307;50.828;6.080;2023-06-19T01:10:56;2.20;;;2.10;;
24143;SDS011;12307;50.828;6.080;2023-06-19T01:13:25;2.15;;;2.03;;
24143;SDS011;12307;50.828;6.080;2023-06-19T01:15:56;2.33;;;2.13;;
24143;SDS011;12307;50.828;6.080;2023-06-19T01:18:24;2.17;;;2.00;;
24143;SDS011;12307;50.828;6.080;2023-06-19T01:20:52;2.30;;;2.10;;
24143;SDS011;12307;50.828;6.080;2023-06-19T01:23:19;2.25;;;2.10;;
24143;SDS011;12307;50.828;6.080;2023-06-19T01:25:44;2.20;;;2.10;;
24143;SDS011;12307;50.828;6.080;2023-06-19T01:28:10;2.17;;;2.00;;
24143;SDS011;12307;50.828;6.080;2023-06-19T01:30:39;2.13;;;2.03;;
24143;SDS011;12307;50.828;6.080;2023-06-19T01:33:07;2.08;;;1.90;;
24143;SDS011;12307;50.828;6.080;2023-06-19T01:35:38;2.25;;;2.05;;
24143;SDS011;12307;50.828;6.080;2023-06-19T01:38:06;2.20;;;2.00;;
24143;SDS011;12307;50.828;6.080;2023-06-19T01:40:34;2.08;;;1.95;;
24143;SDS011;12307;50.828;6.080;2023-06-19T01:43:02;2.10;;;1.90;;
24143;SDS011;12307;50.828;6.080;2023-06-19T01:45:29;2.00;;;1.90;;
24143;SDS011;12307;50.828;6.080;2023-06-19T01:47:56;2.00;;;1.88;;
24143;SDS011;12307;50.828;6.080;2023-06-19T01:50:22;1.90;;;1.80;;
24143;SDS011;12307;50.828;6.080;2023-06-19T01:52:49;2.35;;;2.15;;
24143;SDS011;12307;50.828;6.080;2023-06-19T01:55:15;2.22;;;2.03;;
24143;SDS011;12307;50.828;6.080;2023-06-19T01:57:42;2.15;;;2.00;;
24143;SDS011;12307;50.828;6.080;2023-06-19T02:00:08;2.28;;;2.08;;
24143;SDS011;12307;50.828;6.080;2023-06-19T02:02:35;2.10;;;2.00;;
24143;SDS011;12307;50.828;6.080;2023-06-19T02:05:01;1.90;;;1.80;;
24143;SDS011;12307;50.828;6.080;2023-06-19T02:07:26;2.20;;;2.00;;
24143;SDS011;12307;50.828;6.080;2023-06-19T02:09:52;2.40;;;2.20;;
24143;SDS011;12307;50.828;6.080;2023-06-19T02:12:18;2.20;;;2.00;;
24143;SDS011;12307;50.828;6.080;2023-06-19T02:14:45;2.40;;;2.20;;
24143;SDS011;12307;50.828;6.080;2023-06-19T02:17:10;2.40;;;2.20;;
24143;SDS011;12307;50.828;6.080;2023-06-19T02:19:36;2.10;;;2.00;;
24143;SDS011;12307;50.828;6.080;2023-06-19T02:22:04;2.42;;;2.22;;
24143;SDS011;12307;50.828;6.080;2023-06-19T02:24:31;2.50;;;2.30;;
24143;SDS011;12307;50.828;6.080;2023-06-19T02:26:57;2.28;;;2.08;;
24143;SDS011;12307;50.828;6.080;2023-06-19T02:29:23;2.42;;;2.22;;
24143;SDS011;12307;50.828;6.080;2023-06-19T02:31:50;2.45;;;2.25;;
24143;SDS011;12307;50.828;6.080;2023-06-19T02:34:16;2.22;;;2.03;;
24143;SDS011;12307;50.828;6.080;2023-06-19T02:36:42;2.50;;;2.30;;
24143;SDS011;12307;50.828;6.080;2023-06-19T02:39:08;2.40;;;2.20;;
24143;SDS011;12307;50.828;6.080;2023-06-19T02:41:34;2.70;;;2.20;;
24143;SDS011;12307;50.828;6.080;2023-06-19T02:44:00;2.38;;;2.20;;
24143;SDS011;12307;50.828;6.080;2023-06-19T02:46:26;2.17;;;2.08;;
24143;SDS011;12307;50.828;6.080;2023-06-19T02:48:53;2.65;;;2.45;;
24143;SDS011;12307;50.828;6.080;2023-06-19T02:51:19;2.50;;;2.30;;
24143;SDS011;12307;50.828;6.080;2023-06-19T02:53:45;2.00;;;1.90;;
24143;SDS011;12307;50.828;6.080;2023-06-19T02:56:10;2.70;;;2.50;;
24143;SDS011;12307;50.828;6.080;2023-06-19T02:58:36;2.60;;;2.40;;
24143;SDS011;12307;50.828;6.080;2023-06-19T03:01:02;2.53;;;2.33;;
24143;SDS011;12307;50.828;6.080;2023-06-19T03:03:28;2.40;;;2.20;;
24143;SDS011;12307;50.828;6.080;2023-06-19T03:05:57;2.40;;;2.20;;
24143;SDS011;12307;50.828;6.080;2023-06-19T03:08:24;2.17;;;1.98;;
24143;SDS011;12307;50.828;6.080;2023-06-19T03:10:50;2.85;;;2.40;;
24143;SDS011;12307;50.828;6.080;2023-06-19T03:13:16;2.25;;;2.05;;
24143;SDS011;12307;50.828;6.080;2023-06-19T03:15:41;2.13;;;2.03;;
24143;SDS011;12307;50.828;6.080;2023-06-19T03:18:07;2.35;;;2.15;;
24143;SDS011;12307;50.828;6.080;2023-06-19T03:20:35;2.47;;;2.28;;
24143;SDS011;12307;50.828;6.080;2023-06-19T03:23:02;2.30;;;2.10;;
24143;SDS011;12307;50.828;6.080;2023-06-19T03:25:27;1.77;;;1.67;;
24143;SDS011;12307;50.828;6.080;2023-06-19T03:27:59;2.13;;;2.03;;
24143;SDS011;12307;50.828;6.080;2023-06-19T03:30:25;2.40;;;2.20;;
24143;SDS011;12307;50.828;6.080;2023-06-19T03:32:51;2.75;;;2.30;;
24143;SDS011;12307;50.828;6.080;2023-06-19T03:35:16;2.03;;;1.88;;
24143;SDS011;12307;50.828;6.080;2023-06-19T03:37:42;2.08;;;1.98;;
24143;SDS011;12307;50.828;6.080;2023-06-19T03:40:10;2.22;;;2.03;;
24143;SDS011;12307;50.828;6.080;2023-06-19T03:42:38;2.92;;;2.20;;
24143;SDS011;12307;50.828;6.080;2023-06-19T03:45:04;2.30;;;2.10;;
24143;SDS011;12307;50.828;6.080;2023-06-19T03:47:31;2.00;;;1.90;;
24143;SDS011;12307;50.828;6.080;2023-06-19T03:49:57;2.33;;;2.13;;
24143;SDS011;12307;50.828;6.080;2023-06-19T03:52:22;1.88;;;1.77;;
24143;SDS011;12307;50.828;6.080;2023-06-19T03:54:48;1.92;;;1.80;;
24143;SDS011;12307;50.828;6.080;2023-06-19T03:57:15;2.33;;;2.10;;
24143;SDS011;12307;50.828;6.080;2023-06-19T03:59:41;2.05;;;1.95;;
24143;SDS011;12307;50.828;6.080;2023-06-19T04:02:07;2.28;;;2.08;;
24143;SDS011;12307;50.828;6.080;2023-06-19T04:04:32;2.33;;;2.13;;
24143;SDS011;12307;50.828;6.080;2023-06-19T04:06:58;1.95;;;1.85;;
24143;SDS011;12307;50.828;6.080;2023-06-19T04:09:24;2.38;;;2.17;;
24143;SDS011;12307;50.828;6.080;2023-06-19T04:11:50;1.83;;;1.73;;
24143;SDS011;12307;50.828;6.080;2023-06-19T04:14:17;1.95;;;1.83;;
24143;SDS011;12307;50.828;6.080;2023-06-19T04:16:42;1.90;;;1.80;;
24143;SDS011;12307;50.828;6.080;2023-06-19T04:19:08;2.00;;;1.80;;
24143;SDS011;12307;50.828;6.080;2023-06-19T04:21:34;2.50;;;2.30;;
24143;SDS011;12307;50.828;6.080;2023-06-19T04:23:59;2.00;;;1.90;;
24143;SDS011;12307;50.828;6.080;2023-06-19T04:26:25;2.13;;;1.92;;
24143;SDS011;12307;50.828;6.080;2023-06-19T04:28:51;2.10;;;1.95;;
24143;SDS011;12307;50.828;6.080;2023-06-19T04:31:18;2.40;;;2.20;;
24143;SDS011;12307;50.828;6.080;2023-06-19T04:33:44;2.10;;;2.00;;
24143;SDS011;12307;50.828;6.080;2023-06-19T04:36:10;1.98;;;1.88;;
24143;SDS011;12307;50.828;6.080;2023-06-19T04:38:36;2.40;;;2.20;;
24143;SDS011;12307;50.828;6.080;2023-06-19T04:41:02;2.30;;;2.10;;
24143;SDS011;12307;50.828;6.080;2023-06-19T04:43:27;2.10;;;2.00;;
24143;SDS011;12307;50.828;6.080;2023-06-19T04:45:53;2.45;;;2.25;;
24143;SDS011;12307;50.828;6.080;2023-06-19T04:48:20;2.30;;;2.10;;
24143;SDS011;12307;50.828;6.080;2023-06-19T04:50:51;2.00;;;1.90;;
24143;SDS011;12307;50.828;6.080;2023-06-19T04:53:16;2.00;;;1.90;;
24143;SDS011;12307;50.828;6.080;2023-06-19T04:55:42;2.42;;;2.22;;
24143;SDS011;12307;50.828;6.080;2023-06-19T04:58:08;2.00;;;1.90;;
24143;SDS011;12307;50.828;6.080;2023-06-19T05:00:34;2.35;;;2.15;;
24143;SDS011;12307;50.828;6.080;2023-06-19T05:03:00;2.45;;;2.25;;
24143;SDS011;12307;50.828;6.080;2023-06-19T05:05:28;2.20;;;2.00;;
24143;SDS011;12307;50.828;6.080;2023-06-19T05:07:53;2.50;;;2.30;;
24143;SDS011;12307;50.828;6.080;2023-06-19T05:10:19;1.92;;;1.83;;
24143;SDS011;12307;50.828;6.080;2023-06-19T05:12:45;1.92;;;1.83;;
24143;SDS011;12307;50.828;6.080;2023-06-19T05:15:10;2.10;;;1.90;;
24143;SDS011;12307;50.828;6.080;2023-06-19T05:17:36;2.28;;;2.08;;
24143;SDS011;12307;50.828;6.080;2023-06-19T05:20:04;1.88;;;1.77;;
24143;SDS011;12307;50.828;6.080;2023-06-19T05:22:33;1.90;;;1.80;;
24143;SDS011;12307;50.828;6.080;2023-06-19T05:24:59;1.90;;;1.80;;
24143;SDS011;12307;50.828;6.080;2023-06-19T05:27:25;1.92;;;1.83;;
24143;SDS011;12307;50.828;6.080;2023-06-19T05:29:50;2.17;;;2.00;;
24143;SDS011;12307;50.828;6.080;2023-06-19T05:32:16;1.85;;;1.75;;
24143;SDS011;12307;50.828;6.080;2023-06-19T05:34:42;2.10;;;1.90;;
24143;SDS011;12307;50.828;6.080;2023-06-19T05:37:07;1.83;;;1.73;;
24143;SDS011;12307;50.828;6.080;2023-06-19T05:39:34;2.17;;;2.05;;
24143;SDS011;12307;50.828;6.080;2023-06-19T05:42:00;2.10;;;1.90;;
24143;SDS011;12307;50.828;6.080;2023-06-19T05:44:27;2.00;;;1.90;;
24143;SDS011;12307;50.828;6.080;2023-06-19T05:46:52;1.83;;;1.73;;
24143;SDS011;12307;50.828;6.080;2023-06-19T05:49:18;2.15;;;2.00;;
24143;SDS011;12307;50.828;6.080;2023-06-19T05:51:45;1.83;;;1.73;;
24143;SDS011;12307;50.828;6.080;2023-06-19T05:54:10;1.67;;;1.58;;
24143;SDS011;12307;50.828;6.080;2023-06-19T05:56:38;1.88;;;1.75;;
24143;SDS011;12307;50.828;6.080;2023-06-19T05:59:04;2.25;;;2.05;;
24143;SDS011;12307;50.828;6.080;2023-06-19T06:01:30;2.17;;;1.98;;
24143;SDS011;12307;50.828;6.080;2023-06-19T06:03:56;1.80;;;1.70;;
24143;SDS011;12307;50.828;6.080;2023-06-19T06:06:22;1.80;;;1.70;;
24143;SDS011;12307;50.828;6.080;2023-06-19T06:08:48;1.95;;;1.80;;
24143;SDS011;12307;50.828;6.080;2023-06-19T06:11:14;1.80;;;1.70;;
24143;SDS011;12307;50.828;6.080;2023-06-19T06:13:41;2.05;;;1.85;;
24143;SDS011;12307;50.828;6.080;2023-06-19T06:16:07;1.92;;;1.83;;
24143;SDS011;12307;50.828;6.080;2023-06-19T06:18:32;1.83;;;1.73;;
24143;SDS011;12307;50.828;6.080;2023-06-19T06:20:58;2.15;;;1.95;;
24143;SDS011;12307;50.828;6.080;2023-06-19T06:23:24;2.03;;;1.83;;
24143;SDS011;12307;50.828;6.080;2023-06-19T06:25:50;1.70;;;1.60;;
24143;SDS011;12307;50.828;6.080;2023-06-19T06:28:16;1.77;;;1.67;;
24143;SDS011;12307;50.828;6.080;2023-06-19T06:30:43;1.88;;;1.77;;
24143;SDS011;12307;50.828;6.080;2023-06-19T06:33:09;1.80;;;1.70;;
24143;SDS011;12307;50.828;6.080;2023-06-19T06:35:35;1.90;;;1.80;;
24143;SDS011;12307;50.828;6.080;2023-06-19T06:38:01;1.50;;;1.40;;
24143;SDS011;12307;50.828;6.080;2023-06-19T06:40:26;1.67;;;1.58;;
24143;SDS011;12307;50.828;6.080;2023-06-19T06:42:52;2.00;;;1.67;;
24143;SDS011;12307;50.828;6.080;2023-06-19T06:45:18;1.58;;;1.48;;
24143;SDS011;12307;50.828;6.080;2023-06-19T06:47:47;1.60;;;1.50;;
24143;SDS011;12307;50.828;6.080;2023-06-19T06:50:12;1.65;;;1.55;;
24143;SDS011;12307;50.828;6.080;2023-06-19T06:52:38;1.80;;;1.70;;
24143;SDS011;12307;50.828;6.080;2023-06-19T06:55:04;1.70;;;1.60;;
24143;SDS011;12307;50.828;6.080;2023-06-19T06:57:30;1.60;;;1.50;;
24143;SDS011;12307;50.828;6.080;2023-06-19T06:59:56;2.20;;;1.70;;
24143;SDS011;12307;50.828;6.080;2023-06-19T07:02:21;1.42;;;1.33;;
24143;SDS011;12307;50.828;6.080;2023-06-19T07:04:49;2.42;;;1.40;;
24143;SDS011;12307;50.828;6.080;2023-06-19T07:07:14;1.95;;;1.60;;
24143;SDS011;12307;50.828;6.080;2023-06-19T07:09:40;1.83;;;1.73;;
24143;SDS011;12307;50.828;6.080;2023-06-19T07:12:06;1.80;;;1.60;;
24143;SDS011;12307;50.828;6.080;2023-06-19T07:14:32;1.52;;;1.42;;
24143;SDS011;12307;50.828;6.080;2023-06-19T07:16:58;1.90;;;1.58;;
24143;SDS011;12307;50.828;6.080;2023-06-19T07:19:24;1.50;;;1.40;;
24143;SDS011;12307;50.828;6.080;2023-06-19T07:21:51;1.70;;;1.60;;
24143;SDS011;12307;50.828;6.080;2023-06-19T07:24:17;1.70;;;1.50;;
24143;SDS011;12307;50.828;6.080;2023-06-19T07:26:43;1.95;;;1.75;;
24143;SDS011;12307;50.828;6.080;2023-06-19T07:29:10;1.95;;;1.83;;
24143;SDS011;12307;50.828;6.080;2023-06-19T07:31:36;1.70;;;1.60;;
24143;SDS011;12307;50.828;6.080;2023-06-19T07:34:01;1.73;;;1.63;;
24143;SDS011;12307;50.828;6.080;2023-06-19T07:36:27;1.85;;;1.63;;
24143;SDS011;12307;50.828;6.080;2023-06-19T07:38:54;1.55;;;1.45;;
24143;SDS011;12307;50.828;6.080;2023-06-19T07:41:20;1.98;;;1.77;;
24143;SDS011;12307;50.828;6.080;2023-06-19T07:43:46;2.20;;;2.00;;
24143;SDS011;12307;50.828;6.080;2023-06-19T07:46:11;1.63;;;1.52;;
24143;SDS011;12307;50.828;6.080;2023-06-19T07:48:37;2.42;;;1.90;;
24143;SDS011;12307;50.828;6.080;2023-06-19T07:51:03;2.63;;;1.92;;
24143;SDS011;12307;50.828;6.080;2023-06-19T07:53:29;2.42;;;2.22;;
24143;SDS011;12307;50.828;6.080;2023-06-19T07:55:56;3.38;;;1.80;;
24143;SDS011;12307;50.828;6.080;2023-06-19T07:58:21;2.28;;;1.90;;
24143;SDS011;12307;50.828;6.080;2023-06-19T08:00:47;1.92;;;1.83;;
24143;SDS011;12307;50.828;6.080;2023-06-19T08:03:13;2.10;;;1.90;;
24143;SDS011;12307;50.828;6.080;2023-06-19T08:05:39;2.08;;;1.70;;
24143;SDS011;12307;50.828;6.080;2023-06-19T08:08:04;1.80;;;1.70;;
24143;SDS011;12307;50.828;6.080;2023-06-19T08:10:30;1.98;;;1.77;;
24143;SDS011;12307;50.828;6.080;2023-06-19T08:12:57;2.33;;;2.10;;
24143;SDS011;12307;50.828;6.080;2023-06-19T08:15:23;3.13;;;1.98;;
24143;SDS011;12307;50.828;6.080;2023-06-19T08:17:48;2.20;;;2.00;;
24143;SDS011;12307;50.828;6.080;2023-06-19T08:20:15;2.28;;;2.05;;
24143;SDS011;12307;50.828;6.080;2023-06-19T08:22:41;2.30;;;2.10;;
24143;SDS011;12307;50.828;6.080;2023-06-19T08:25:07;2.13;;;1.90;;
24143;SDS011;12307;50.828;6.080;2023-06-19T08:27:33;2.10;;;1.70;;
24143;SDS011;12307;50.828;6.080;2023-06-19T08:30:00;2.08;;;1.80;;
24143;SDS011;12307;50.828;6.080;2023-06-19T08:32:25;2.10;;;1.90;;
24143;SDS011;12307;50.828;6.080;2023-06-19T08:34:52;2.30;;;2.10;;
24143;SDS011;12307;50.828;6.080;2023-06-19T08:37:17;2.03;;;1.85;;
24143;SDS011;12307;50.828;6.080;2023-06-19T08:39:45;2.20;;;2.00;;
24143;SDS011;12307;50.828;6.080;2023-06-19T08:42:11;2.45;;;1.80;;
24143;SDS011;12307;50.828;6.080;2023-06-19T08:44:37;1.85;;;1.70;;
24143;SDS011;12307;50.828;6.080;2023-06-19T08:47:05;2.22;;;1.98;;
24143;SDS011;12307;50.828;6.080;2023-06-19T08:49:33;2.35;;;2.00;;
24143;SDS011;12307;50.828;6.080;2023-06-19T08:51:59;1.73;;;1.60;;
24143;SDS011;12307;50.828;6.080;2023-06-19T08:54:25;2.17;;;1.98;;
24143;SDS011;12307;50.828;6.080;2023-06-19T08:56:51;1.90;;;1.80;;
24143;SDS011;12307;50.828;6.080;2023-06-19T08:59:18;2.08;;;1.85;;
24143;SDS011;12307;50.828;6.080;2023-06-19T09:01:46;1.75;;;1.65;;
24143;SDS011;12307;50.828;6.080;2023-06-19T09:04:18;2.20;;;2.00;;
24143;SDS011;12307;50.828;6.080;2023-06-19T09:06:46;2.30;;;2.10;;
24143;SDS011;12307;50.828;6.080;2023-06-19T09:09:13;2.10;;;1.90;;
24143;SDS011;12307;50.828;6.080;2023-06-19T09:11:39;1.95;;;1.80;;
24143;SDS011;12307;50.828;6.080;2023-06-19T09:14:08;2.10;;;1.90;;
24143;SDS011;12307;50.828;6.080;2023-06-19T09:16:38;2.13;;;1.92;;
24143;SDS011;12307;50.828;6.080;2023-06-19T09:19:04;2.50;;;2.25;;
24143;SDS011;12307;50.828;6.080;2023-06-19T09:21:32;2.08;;;1.88;;
24143;SDS011;12307;50.828;6.080;2023-06-19T09:24:03;2.05;;;1.90;;
24143;SDS011;12307;50.828;6.080;2023-06-19T09:26:30;1.85;;;1.75;;
24143;SDS011;12307;50.828;6.080;2023-06-19T09:28:56;2.40;;;2.20;;
24143;SDS011;12307;50.828;6.080;2023-06-19T09:31:30;2.30;;;2.10;;
24143;SDS011;12307;50.828;6.080;2023-06-19T09:33:56;2.00;;;1.83;;
24143;SDS011;12307;50.828;6.080;2023-06-19T09:36:22;3.50;;;2.17;;
24143;SDS011;12307;50.828;6.080;2023-06-19T09:38:50;2.78;;;2.58;;
24143;SDS011;12307;50.828;6.080;2023-06-19T09:41:17;3.03;;;2.75;;
24143;SDS011;12307;50.828;6.080;2023-06-19T09:43:46;3.85;;;2.65;;
24143;SDS011;12307;50.828;6.080;2023-06-19T09:46:12;3.28;;;2.70;;
24143;SDS011;12307;50.828;6.080;2023-06-19T09:48:40;5.63;;;3.10;;
24143;SDS011;12307;50.828;6.080;2023-06-19T09:51:09;5.20;;;2.70;;
24143;SDS011;12307;50.828;6.080;2023-06-19T09:53:42;3.55;;;2.80;;
24143;SDS011;12307;50.828;6.080;2023-06-19T09:56:11;3.72;;;2.88;;
24143;SDS011;12307;50.828;6.080;2023-06-19T09:58:37;3.25;;;2.50;;
24143;SDS011;12307;50.828;6.080;2023-06-19T10:01:04;3.15;;;2.42;;
24143;SDS011;12307;50.828;6.080;2023-06-19T10:03:31;2.95;;;2.70;;
24143;SDS011;12307;50.828;6.080;2023-06-19T10:05:58;3.72;;;2.80;;
24143;SDS011;12307;50.828;6.080;2023-06-19T10:08:29;3.72;;;2.85;;
24143;SDS011;12307;50.828;6.080;2023-06-19T10:10:55;4.60;;;2.60;;
24143;SDS011;12307;50.828;6.080;2023-06-19T10:13:30;2.90;;;2.60;;
24143;SDS011;12307;50.828;6.080;2023-06-19T10:15:57;3.22;;;2.92;;
24143;SDS011;12307;50.828;6.080;2023-06-19T10:18:23;3.40;;;3.00;;
24143;SDS011;12307;50.828;6.080;2023-06-19T10:20:53;2.78;;;2.58;;
24143;SDS011;12307;50.828;6.080;2023-06-19T10:23:20;4.72;;;2.83;;
24143;SDS011;12307;50.828;6.080;2023-06-19T10:25:48;3.58;;;2.60;;
24143;SDS011;12307;50.828;6.080;2023-06-19T10:28:21;4.68;;;2.85;;
24143;SDS011;12307;50.828;6.080;2023-06-19T10:30:56;4.35;;;2.80;;
24143;SDS011;12307;50.828;6.080;2023-06-19T10:33:22;3.42;;;3.10;;
24143;SDS011;12307;50.828;6.080;2023-06-19T10:35:49;4.78;;;2.83;;
24143;SDS011;12307;50.828;6.080;2023-06-19T10:38:15;3.10;;;2.80;;
24143;SDS011;12307;50.828;6.080;2023-06-19T10:40:42;5.78;;;2.78;;
24143;SDS011;12307;50.828;6.080;2023-06-19T10:43:09;3.60;;;2.58;;
24143;SDS011;12307;50.828;6.080;2023-06-19T10:45:35;3.05;;;2.75;;
24143;SDS011;12307;50.828;6.080;2023-06-19T10:48:02;5.07;;;2.92;;
24143;SDS011;12307;50.828;6.080;2023-06-19T10:50:29;3.47;;;2.83;;
24143;SDS011;12307;50.828;6.080;2023-06-19T10:52:58;3.28;;;2.72;;
24143;SDS011;12307;50.828;6.080;2023-06-19T10:55:24;3.75;;;2.78;;
24143;SDS011;12307;50.828;6.080;2023-06-19T10:57:50;3.97;;;2.80;;
24143;SDS011;12307;50.828;6.080;2023-06-19T11:00:22;3.85;;;2.95;;
24143;SDS011;12307;50.828;6.080;2023-06-19T11:02:49;3.60;;;2.90;;
24143;SDS011;12307;50.828;6.080;2023-06-19T11:05:16;3.30;;;2.97;;
24143;SDS011;12307;50.828;6.080;2023-06-19T11:07:50;3.17;;;2.60;;
24143;SDS011;12307;50.828;6.080;2023-06-19T11:10:18;3.30;;;3.00;;
24143;SDS011;12307;50.828;6.080;2023-06-19T11:12:45;3.50;;;2.92;;
24143;SDS011;12307;50.828;6.080;2023-06-19T11:15:11;3.25;;;2.90;;
24143;SDS011;12307;50.828;6.080;2023-06-19T11:17:37;3.03;;;2.72;;
24143;SDS011;12307;50.828;6.080;2023-06-19T11:20:03;3.33;;;3.03;;
24143;SDS011;12307;50.828;6.080;2023-06-19T11:22:36;3.47;;;3.17;;
24143;SDS011;12307;50.828;6.080;2023-06-19T11:25:04;4.10;;;3.05;;
24143;SDS011;12307;50.828;6.080;2023-06-19T11:27:30;3.03;;;2.72;;
24143;SDS011;12307;50.828;6.080;2023-06-19T11:29:56;3.60;;;2.92;;
24143;SDS011;12307;50.828;6.080;2023-06-19T11:32:23;3.47;;;3.17;;
24143;SDS011;12307;50.828;6.080;2023-06-19T11:34:56;3.70;;;3.33;;
24143;SDS011;12307;50.828;6.080;2023-06-19T11:37:22;3.63;;;2.97;;
24143;SDS011;12307;50.828;6.080;2023-06-19T11:39:49;3.50;;;3.20;;
24143;SDS011;12307;50.828;6.080;2023-06-19T11:42:17;3.95;;;3.15;;
24143;SDS011;12307;50.828;6.080;2023-06-19T11:44:53;4.40;;;3.40;;
24143;SDS011;12307;50.828;6.080;2023-06-19T11:47:20;3.42;;;3.13;;
24143;SDS011;12307;50.828;6.080;2023-06-19T11:49:47;4.25;;;3.22;;
24143;SDS011;12307;50.828;6.080;2023-06-19T11:52:13;3.83;;;3.03;;
24143;SDS011;12307;50.828;6.080;2023-06-19T11:54:39;4.35;;;2.80;;
24143;SDS011;12307;50.828;6.080;2023-06-19T11:57:06;3.33;;;3.03;;
24143;SDS011;12307;50.828;6.080;2023-06-19T11:59:32;3.55;;;3.25;;
24143;SDS011;12307;50.828;6.080;2023-06-19T12:01:57;3.05;;;2.80;;
24143;SDS011;12307;50.828;6.080;2023-06-19T12:04:24;3.10;;;2.75;;
24143;SDS011;12307;50.828;6.080;2023-06-19T12:06:51;3.95;;;3.05;;
24143;SDS011;12307;50.828;6.080;2023-06-19T12:09:17;3.20;;;2.90;;
24143;SDS011;12307;50.828;6.080;2023-06-19T12:11:43;3.53;;;3.05;;
24143;SDS011;12307;50.828;6.080;2023-06-19T12:14:10;3.42;;;2.97;;
24143;SDS011;12307;50.828;6.080;2023-06-19T12:16:36;3.35;;;2.88;;
24143;SDS011;12307;50.828;6.080;2023-06-19T12:19:02;3.83;;;2.83;;
24143;SDS011;12307;50.828;6.080;2023-06-19T12:21:28;3.40;;;3.10;;
24143;SDS011;12307;50.828;6.080;2023-06-19T12:23:53;3.67;;;3.38;;
24143;SDS011;12307;50.828;6.080;2023-06-19T12:26:19;3.78;;;2.72;;
24143;SDS011;12307;50.828;6.080;2023-06-19T12:28:45;4.10;;;3.17;;
24143;SDS011;12307;50.828;6.080;2023-06-19T12:31:12;3.60;;;3.30;;
24143;SDS011;12307;50.828;6.080;2023-06-19T12:33:38;3.85;;;3.22;;
24143;SDS011;12307;50.828;6.080;2023-06-19T12:36:09;3.75;;;3.40;;
24143;SDS011;12307;50.828;6.080;2023-06-19T12:38:37;4.05;;;3.50;;
24143;SDS011;12307;50.828;6.080;2023-06-19T12:41:03;4.13;;;3.72;;
24143;SDS011;12307;50.828;6.080;2023-06-19T12:43:29;3.97;;;3.58;;
24143;SDS011;12307;50.828;6.080;2023-06-19T12:45:56;4.10;;;3.20;;
24143;SDS011;12307;50.828;6.080;2023-06-19T12:48:26;7.95;;;3.80;;
24143;SDS011;12307;50.828;6.080;2023-06-19T12:50:52;7.80;;;3.50;;
24143;SDS011;12307;50.828;6.080;2023-06-19T12:53:17;5.55;;;3.70;;
24143;SDS011;12307;50.828;6.080;2023-06-19T12:55:43;4.60;;;3.65;;
24143;SDS011;12307;50.828;6.080;2023-06-19T12:58:09;4.07;;;3.28;;
24143;SDS011;12307;50.828;6.080;2023-06-19T13:00:36;3.97;;;3.00;;
24143;SDS011;12307;50.828;6.080;2023-06-19T13:03:01;4.18;;;3.78;;
24143;SDS011;12307;50.828;6.080;2023-06-19T13:05:28;5.97;;;3.50;;
24143;SDS011;12307;50.828;6.080;2023-06-19T13:07:54;5.05;;;3.80;;
24143;SDS011;12307;50.828;6.080;2023-06-19T13:10:20;4.88;;;3.60;;
24143;SDS011;12307;50.828;6.080;2023-06-19T13:12:46;4.60;;;3.33;;
24143;SDS011;12307;50.828;6.080;2023-06-19T13:15:11;4.50;;;3.65;;
24143;SDS011;12307;50.828;6.080;2023-06-19T13:17:37;5.97;;;3.85;;
24143;SDS011;12307;50.828;6.080;2023-06-19T13:20:03;4.07;;;3.67;;
24143;SDS011;12307;50.828;6.080;2023-06-19T13:22:31;4.13;;;3.72;;
24143;SDS011;12307;50.828;6.080;2023-06-19T13:24:57;4.30;;;3.90;;
24143;SDS011;12307;50.828;6.080;2023-06-19T13:27:23;4.80;;;3.53;;
24143;SDS011;12307;50.828;6.080;2023-06-19T13:29:49;4.82;;;3.30;;
24143;SDS011;12307;50.828;6.080;2023-06-19T13:32:15;4.00;;;3.60;;
24143;SDS011;12307;50.828;6.080;2023-06-19T13:34:41;3.72;;;3.28;;
24143;SDS011;12307;50.828;6.080;2023-06-19T13:37:07;3.72;;;3.40;;
24143;SDS011;12307;50.828;6.080;2023-06-19T13:39:35;4.00;;;3.60;;
24143;SDS011;12307;50.828;6.080;2023-06-19T13:42:01;3.92;;;3.25;;
24143;SDS011;12307;50.828;6.080;2023-06-19T13:44:27;3.95;;;3.50;;
24143;SDS011;12307;50.828;6.080;2023-06-19T13:46:53;3.40;;;3.10;;
24143;SDS011;12307;50.828;6.080;2023-06-19T13:49:19;4.95;;;3.28;;
24143;SDS011;12307;50.828;6.080;2023-06-19T13:51:44;5.25;;;3.20;;
24143;SDS011;12307;50.828;6.080;2023-06-19T13:54:10;5.38;;;3.25;;
24143;SDS011;12307;50.828;6.080;2023-06-19T13:56:39;3.80;;;3.38;;
24143;SDS011;12307;50.828;6.080;2023-06-19T13:59:05;3.58;;;3.28;;
24143;SDS011;12307;50.828;6.080;2023-06-19T14:01:31;4.32;;;3.17;;
24143;SDS011;12307;50.828;6.080;2023-06-19T14:03:57;3.92;;;3.33;;
24143;SDS011;12307;50.828;6.080;2023-06-19T14:06:23;4.47;;;3.13;;
24143;SDS011;12307;50.828;6.080;2023-06-19T14:08:49;4.25;;;3.30;;
24143;SDS011;12307;50.828;6.080;2023-06-19T14:11:15;6.03;;;3.45;;
24143;SDS011;12307;50.828;6.080;2023-06-19T14:13:42;4.55;;;3.40;;
24143;SDS011;12307;50.828;6.080;2023-06-19T14:16:07;3.38;;;3.05;;
24143;SDS011;12307;50.828;6.080;2023-06-19T14:18:33;4.13;;;3.38;;
24143;SDS011;12307;50.828;6.080;2023-06-19T14:21:01;3.67;;;3.22;;
24143;SDS011;12307;50.828;6.080;2023-06-19T14:23:27;4.18;;;3.47;;
24143;SDS011;12307;50.828;6.080;2023-06-19T14:25:53;3.40;;;3.10;;
24143;SDS011;12307;50.828;6.080;2023-06-19T14:28:19;4.25;;;3.53;;
24143;SDS011;12307;50.828;6.080;2023-06-19T14:30:46;5.20;;;3.60;;
24143;SDS011;12307;50.828;6.080;2023-06-19T14:33:12;3.58;;;3.05;;
24143;SDS011;12307;50.828;6.080;2023-06-19T14:35:40;3.55;;;3.25;;
24143;SDS011;12307;50.828;6.080;2023-06-19T14:38:06;3.75;;;3.17;;
24143;SDS011;12307;50.828;6.080;2023-06-19T14:40:31;4.95;;;3.53;;
24143;SDS011;12307;50.828;6.080;2023-06-19T14:42:57;4.25;;;3.13;;
24143;SDS011;12307;50.828;6.080;2023-06-19T14:45:23;5.70;;;3.17;;